Time;durP1;ratioP1;P1;durP2;ratioP2;P2;SDS_P1;SDS_P2;PMS_P1;PMS_P2;Temp;Humidity;BMP_temperature;BMP_pressure;BME280_temperature;BME280_humidity;BME280_pressure;Samples;Min_cycle;Max_cycle;Signal;HPM_P1;HPM_P2
2021/12/29 00:00:27;;;;;;;100.65;36.90;;;;;;;-0.23;100.00;97767.88;8464659;27;20130;-76
2021/12/29 00:04:39;;;;;;;94.13;34.25;;;;;;;-0.22;100.00;97772.13;8472935;27;20123;-76
2021/12/29 00:08:41;;;;;;;95.85;33.83;;;;;;;-0.21;100.00;97773.72;8473798;27;20047;-77
2021/12/29 00:12:46;;;;;;;92.82;33.60;;;;;;;-0.21;100.00;97773.72;8497594;27;20482;-75
2021/12/29 00:16:47;;;;;;;102.45;35.38;;;;;;;-0.20;100.00;97769.97;8492128;27;20062;-75
2021/12/29 00:20:48;;;;;;;88.43;33.42;;;;;;;-0.20;100.00;97775.28;8465732;27;20044;-76
2021/12/29 00:24:49;;;;;;;85.47;33.13;;;;;;;-0.17;100.00;97769.44;8482566;27;20422;-75
2021/12/29 00:28:50;;;;;;;93.25;32.65;;;;;;;-0.14;100.00;97768.91;8465194;27;20122;-76
2021/12/29 00:32:51;;;;;;;87.53;31.65;;;;;;;-0.14;100.00;97774.19;8478240;27;20039;-77
2021/12/29 00:36:52;;;;;;;112.93;36.70;;;;;;;-0.14;100.00;97784.81;8498021;27;20058;-77
2021/12/29 00:40:53;;;;;;;82.57;29.88;;;;;;;-0.13;100.00;97781.09;8483884;27;20055;-77
2021/12/29 00:44:54;;;;;;;87.30;30.25;;;;;;;-0.16;100.00;97786.97;8478465;27;20331;-77
2021/12/29 00:48:56;;;;;;;78.43;28.58;;;;;;;-0.13;100.00;97781.09;8497921;27;20050;-77
2021/12/29 00:52:57;;;;;;;84.35;32.80;;;;;;;-0.10;100.00;97785.84;8489366;27;20085;-76
2021/12/29 00:56:58;;;;;;;97.55;35.03;;;;;;;-0.08;100.00;97783.72;8475338;27;20595;-77
2021/12/29 01:00:59;;;;;;;76.72;29.52;;;;;;;-0.09;100.00;97776.84;8494018;27;20088;-76
2021/12/29 01:05:02;;;;;;;84.90;30.95;;;;;;;-0.04;100.00;97776.81;8478938;27;20039;-77
2021/12/29 01:09:03;;;;;;;75.13;27.73;;;;;;;-0.02;100.00;97782.66;8475137;27;20049;-76
2021/12/29 01:13:06;;;;;;;74.85;26.27;;;;;;;0.00;100.00;97775.22;8467498;27;20406;-76
2021/12/29 01:17:08;;;;;;;63.10;25.75;;;;;;;0.01;100.00;97771.47;8479542;27;20092;-76
2021/12/29 01:21:09;;;;;;;62.63;24.75;;;;;;;-0.01;100.00;97769.13;8496875;27;20418;-76
2021/12/29 01:25:10;;;;;;;53.33;21.92;;;;;;;0.00;100.00;97777.88;8482818;27;20043;-77
2021/12/29 01:29:12;;;;;;;48.47;21.02;;;;;;;0.00;100.00;97772.56;8466353;27;20131;-76
2021/12/29 01:33:13;;;;;;;56.50;22.33;;;;;;;-0.01;100.00;97778.94;8430988;27;20047;-76
2021/12/29 01:37:14;;;;;;;49.65;20.85;;;;;;;-0.03;100.00;97786.38;8465941;27;20116;-77
2021/12/29 01:41:14;;;;;;;55.72;21.70;;;;;;;0.01;100.00;97782.09;8492573;27;20049;-77
2021/12/29 01:45:16;;;;;;;53.22;22.42;;;;;;;0.00;100.00;97780.53;8491279;27;20071;-76
2021/12/29 01:49:17;;;;;;;60.08;21.25;;;;;;;0.00;100.00;97785.84;8492236;27;20049;-76
2021/12/29 01:53:27;;;;;;;55.25;22.38;;;;;;;0.04;100.00;97786.88;8482837;27;20038;-76
2021/12/29 01:57:28;;;;;;;53.65;23.23;;;;;;;0.00;100.00;97785.84;8493155;27;20126;-76
2021/12/29 02:01:28;;;;;;;56.88;23.02;;;;;;;0.03;100.00;97777.31;8486833;27;20128;-76
2021/12/29 02:05:29;;;;;;;57.55;22.05;;;;;;;0.04;100.00;97776.25;8495154;27;20144;-77
2021/12/29 02:09:30;;;;;;;46.97;20.50;;;;;;;0.06;100.00;97782.06;8433744;27;20134;-76
2021/12/29 02:13:31;;;;;;;52.03;20.48;;;;;;;0.06;100.00;97774.09;8489149;27;20134;-77
2021/12/29 02:17:32;;;;;;;52.00;21.27;;;;;;;0.03;100.00;97790.59;8465525;27;20399;-75
2021/12/29 02:21:34;;;;;;;47.95;20.05;;;;;;;0.05;100.00;97788.47;8470029;27;20055;-76
2021/12/29 02:25:47;;;;;;;47.10;20.25;;;;;;;0.08;100.00;97782.59;8425533;27;20043;-76
2021/12/29 02:29:47;;;;;;;52.55;20.25;;;;;;;0.05;100.00;97787.66;8461801;28;20049;-75
2021/12/29 02:33:48;;;;;;;50.38;20.35;;;;;;;0.08;100.00;97787.91;8486219;27;20047;-77
2021/12/29 02:37:49;;;;;;;51.67;20.48;;;;;;;0.19;100.00;97789.47;8475732;27;20577;-77
2021/12/29 02:41:54;;;;;;;49.10;19.10;;;;;;;0.24;100.00;97786.78;8487024;28;20134;-76
2021/12/29 02:46:01;;;;;;;44.13;18.40;;;;;;;0.25;100.00;97788.38;8466573;28;20047;-76
2021/12/29 02:50:03;;;;;;;39.10;17.03;;;;;;;0.16;100.00;97792.63;8479684;28;20047;-77
2021/12/29 02:54:04;;;;;;;41.90;16.92;;;;;;;0.18;100.00;97798.47;8469665;28;20127;-76
2021/12/29 02:58:05;;;;;;;38.42;17.88;;;;;;;0.18;100.00;97795.81;8492875;28;20091;-77
2021/12/29 03:02:06;;;;;;;41.70;17.13;;;;;;;0.29;100.00;97794.72;8494152;28;20549;-76
2021/12/29 03:06:08;;;;;;;36.63;16.08;;;;;;;0.39;100.00;97805.28;8469870;28;20048;-76
2021/12/29 03:10:09;;;;;;;37.90;15.60;;;;;;;0.41;100.00;97818.28;8467160;28;20046;-76
2021/12/29 03:14:11;;;;;;;42.08;16.52;;;;;;;0.38;100.00;97824.94;8494115;28;20027;-76
2021/12/29 03:18:12;;;;;;;39.80;16.63;;;;;;;0.28;100.00;97824.97;8477794;28;20070;-76
2021/12/29 03:22:13;;;;;;;43.10;17.80;;;;;;;0.30;100.00;97833.47;8485069;28;20069;-76
2021/12/29 03:26:14;;;;;;;39.03;15.75;;;;;;;0.32;100.00;97836.63;8471815;27;20039;-76
2021/12/29 03:30:15;;;;;;;48.13;19.45;;;;;;;0.28;100.00;97840.91;8483960;27;20541;-76
2021/12/29 03:34:15;;;;;;;49.97;19.45;;;;;;;0.21;100.00;97853.69;8499925;27;20518;-75
2021/12/29 03:38:19;;;;;;;45.92;19.35;;;;;;;0.13;100.00;97843.63;8492502;27;20050;-75
2021/12/29 03:42:19;;;;;;;50.97;19.98;;;;;;;0.22;100.00;97841.19;8483016;27;20054;-76
2021/12/29 03:46:20;;;;;;;55.67;21.08;;;;;;;0.17;100.00;97849.97;8491808;27;20055;-75
2021/12/29 03:50:21;;;;;;;45.70;17.77;;;;;;;0.11;100.00;97851.06;8455569;27;20054;-75
2021/12/29 03:54:22;;;;;;;47.30;19.52;;;;;;;0.18;100.00;97851.56;8473645;27;20466;-76
2021/12/29 03:58:24;;;;;;;45.13;20.13;;;;;;;0.17;100.00;97849.19;8491212;27;20523;-75
2021/12/29 04:02:25;;;;;;;45.80;19.90;;;;;;;0.16;100.00;97864.31;8446986;27;20035;-76
2021/12/29 04:06:26;;;;;;;46.60;19.25;;;;;;;0.18;100.00;97867.50;8482645;27;20046;-76
2021/12/29 04:10:27;;;;;;;44.75;18.75;;;;;;;0.20;100.00;97870.69;8498620;27;20039;-77
2021/12/29 04:14:28;;;;;;;43.30;18.00;;;;;;;0.25;100.00;97880.50;8429125;27;20498;-76
2021/12/29 04:18:30;;;;;;;40.55;18.50;;;;;;;0.20;100.00;97891.94;8482006;27;20092;-76
2021/12/29 04:22:31;;;;;;;42.70;19.50;;;;;;;0.26;100.00;97885.56;8490467;27;20054;-76
2021/12/29 04:26:35;;;;;;;46.78;18.67;;;;;;;0.29;100.00;97889.50;8498862;27;20051;-77
2021/12/29 04:30:36;;;;;;;35.63;15.85;;;;;;;0.31;100.00;97896.16;8473852;27;20054;-77
2021/12/29 04:34:37;;;;;;;40.88;16.95;;;;;;;0.21;100.00;97893.50;8489409;27;20059;-76
2021/12/29 04:38:38;;;;;;;38.33;16.45;;;;;;;0.21;100.00;97888.19;8498007;27;20084;-76
2021/12/29 04:42:39;;;;;;;32.55;15.38;;;;;;;0.27;100.00;97887.13;8435922;27;20051;-76
2021/12/29 04:46:44;;;;;;;37.05;15.68;;;;;;;0.27;100.00;97891.63;8489386;27;20483;-77
2021/12/29 04:50:52;;;;;;;38.28;16.95;;;;;;;0.32;100.00;97900.38;8490215;27;20422;-76
2021/12/29 04:54:53;;;;;;;34.33;15.87;;;;;;;0.45;100.00;97914.94;8496302;27;20514;-76
2021/12/29 04:58:54;;;;;;;38.80;17.20;;;;;;;0.47;100.00;97906.72;8480736;27;20426;-77
2021/12/29 05:02:55;;;;;;;40.22;16.42;;;;;;;0.45;100.00;97914.13;8466446;27;20043;-77
2021/12/29 05:11:16;;;;;;;41.00;17.10;;;;;;;0.37;100.00;97913.63;8493151;27;20043;-77
2021/12/29 05:15:16;;;;;;;60.42;24.85;;;;;;;0.40;100.00;97915.75;8496838;27;20067;-77
2021/12/29 05:19:17;;;;;;;43.30;20.90;;;;;;;0.37;100.00;97924.25;8415260;27;20301;-76
2021/12/29 05:23:18;;;;;;;50.75;22.67;;;;;;;0.46;100.00;97926.34;8488365;27;20491;-76
2021/12/29 05:27:19;;;;;;;48.15;20.48;;;;;;;0.42;100.00;97921.56;8483823;27;20080;-77
2021/12/29 05:31:20;;;;;;;72.97;28.88;;;;;;;0.43;100.00;97923.16;8469455;27;20127;-76
2021/12/29 05:35:20;;;;;;;63.42;27.23;;;;;;;0.39;100.00;97938.06;8496781;27;20043;-76
2021/12/29 05:39:21;;;;;;;154.77;49.25;;;;;;;0.41;100.00;97941.25;8475723;27;20048;-77
2021/12/29 05:43:22;;;;;;;87.85;40.55;;;;;;;0.46;100.00;97944.94;8491632;27;20129;-77
2021/12/29 05:47:23;;;;;;;43.60;21.50;;;;;;;0.37;100.00;97950.81;8491175;27;20486;-77
2021/12/29 05:51:23;;;;;;;44.42;17.42;;;;;;;0.34;100.00;97946.06;8466822;27;20051;-77
2021/12/29 05:55:25;;;;;;;37.45;19.73;;;;;;;0.40;100.00;97957.44;8487111;27;20357;-77
2021/12/29 05:59:26;;;;;;;41.42;20.02;;;;;;;0.40;100.00;97960.91;8483536;27;20043;-76
2021/12/29 06:03:27;;;;;;;35.58;18.10;;;;;;;0.37;100.00;97964.09;8495894;27;20035;-77
2021/12/29 06:07:28;;;;;;;39.80;19.48;;;;;;;0.37;100.00;97977.38;8434035;27;20578;-77
2021/12/29 06:11:29;;;;;;;30.13;14.57;;;;;;;0.33;100.00;97971.00;8455392;27;20040;-76
2021/12/29 06:15:29;;;;;;;29.80;15.05;;;;;;;0.30;100.00;97971.56;8474583;27;20511;-77
2021/12/29 06:19:32;;;;;;;32.15;16.17;;;;;;;0.36;100.00;97970.50;8486550;27;20058;-77
2021/12/29 06:23:32;;;;;;;33.45;15.73;;;;;;;0.36;100.00;97981.09;8482958;27;20166;-77
2021/12/29 06:27:33;;;;;;;33.67;16.63;;;;;;;0.41;100.00;97983.75;8481903;27;20047;-76
2021/12/29 06:31:34;;;;;;;29.17;14.38;;;;;;;0.34;100.00;97999.16;8490200;27;20052;-76
2021/12/29 06:35:35;;;;;;;33.10;15.20;;;;;;;0.35;100.00;98006.06;8487144;27;20059;-76
2021/12/29 06:39:36;;;;;;;31.13;14.40;;;;;;;0.40;100.00;98018.53;8482381;27;20036;-77
2021/12/29 06:43:37;;;;;;;27.40;12.30;;;;;;;0.42;100.00;98021.72;8466011;28;20059;-77
2021/12/29 06:47:38;;;;;;;27.88;14.07;;;;;;;0.47;100.00;98035.00;8486960;28;20039;-77
2021/12/29 06:51:39;;;;;;;25.60;13.05;;;;;;;0.48;100.00;98035.81;8484263;28;20046;-76
2021/12/29 06:55:41;;;;;;;30.38;14.43;;;;;;;0.49;100.00;98045.34;8480118;28;20538;-77
2021/12/29 06:59:42;;;;;;;34.13;15.25;;;;;;;0.49;100.00;98042.69;8480530;27;20040;-77
2021/12/29 07:03:43;;;;;;;30.55;15.55;;;;;;;0.55;100.00;98046.91;8496242;27;20486;-75
2021/12/29 07:07:46;;;;;;;29.23;15.20;;;;;;;0.50;100.00;98049.59;8492043;27;20050;-78
2021/12/29 07:11:47;;;;;;;26.20;13.88;;;;;;;0.51;100.00;98064.47;8489441;27;20435;-76
2021/12/29 07:15:48;;;;;;;24.20;12.50;;;;;;;0.52;100.00;98063.41;8487157;27;20058;-77
2021/12/29 07:19:49;;;;;;;23.33;13.30;;;;;;;0.57;100.00;98071.38;8489551;27;20665;-76
2021/12/29 07:23:51;;;;;;;25.73;13.48;;;;;;;0.65;100.00;98076.91;8476165;27;20042;-76
2021/12/29 07:27:52;;;;;;;25.00;13.70;;;;;;;0.63;100.00;98086.25;8475865;27;20074;-76
2021/12/29 07:31:53;;;;;;;27.27;14.13;;;;;;;0.65;100.00;98084.09;8477305;27;20039;-76
2021/12/29 07:35:54;;;;;;;24.70;12.73;;;;;;;0.60;100.00;98097.38;8499125;27;20043;-76
2021/12/29 07:39:55;;;;;;;28.92;14.20;;;;;;;0.57;100.00;98098.75;8491793;27;20063;-76
2021/12/29 07:43:56;;;;;;;28.10;14.15;;;;;;;0.61;100.00;98109.63;8487614;27;20066;-76
2021/12/29 07:47:58;;;;;;;45.53;18.77;;;;;;;0.56;100.00;98118.38;8487328;27;20039;-76
2021/12/29 07:51:58;;;;;;;42.47;19.95;;;;;;;0.71;100.00;98130.84;8442310;27;20043;-76
2021/12/29 07:56:00;;;;;;;42.65;19.92;;;;;;;0.72;100.00;98127.13;8500612;27;20120;-75
2021/12/29 08:00:00;;;;;;;51.05;23.85;;;;;;;0.72;100.00;98132.44;8491662;27;20054;-75
2021/12/29 08:04:01;;;;;;;37.22;16.98;;;;;;;0.64;100.00;98140.94;8485310;27;20410;-75
2021/12/29 08:08:05;;;;;;;33.92;17.83;;;;;;;0.69;100.00;98143.59;8489184;27;20032;-75
2021/12/29 08:12:07;;;;;;;36.75;17.67;;;;;;;0.76;100.00;98154.75;8482280;27;20096;-75
2021/12/29 08:16:08;;;;;;;35.40;17.27;;;;;;;0.84;100.00;98152.38;8490867;27;20032;-76
2021/12/29 08:20:09;;;;;;;35.90;17.92;;;;;;;0.90;100.00;98147.81;8442030;27;20062;-76
2021/12/29 08:24:10;;;;;;;30.52;15.82;;;;;;;0.87;100.00;98161.66;8491719;27;20035;-75
2021/12/29 08:28:12;;;;;;;39.45;16.63;;;;;;;0.84;100.00;98157.69;8468200;27;20051;-76
2021/12/29 08:32:13;;;;;;;36.33;17.73;;;;;;;0.82;100.00;98153.69;8482707;27;20062;-75
2021/12/29 08:36:14;;;;;;;35.38;17.15;;;;;;;0.94;100.00;98162.19;8463357;27;20057;-75
2021/12/29 08:40:15;;;;;;;37.33;17.52;;;;;;;1.04;100.00;98172.78;8498645;27;20549;-76
2021/12/29 08:44:17;;;;;;;43.63;19.75;;;;;;;1.05;100.00;98174.41;8477952;27;20055;-75
2021/12/29 08:48:18;;;;;;;45.08;20.90;;;;;;;1.13;100.00;98176.50;8481869;27;20086;-76
2021/12/29 08:52:18;;;;;;;37.42;18.10;;;;;;;1.08;100.00;98195.13;8488719;27;20051;-76
2021/12/29 08:56:19;;;;;;;45.10;20.65;;;;;;;1.01;100.00;98199.91;8470792;27;20051;-76
2021/12/29 09:00:20;;;;;;;33.92;17.80;;;;;;;0.97;100.00;98209.47;8474104;27;20113;-75
2021/12/29 09:04:21;;;;;;;35.80;17.67;;;;;;;0.92;100.00;98196.19;8422438;27;20131;-77
2021/12/29 09:08:22;;;;;;;43.88;19.85;;;;;;;0.94;100.00;98204.72;8475461;27;20035;-75
2021/12/29 09:12:23;;;;;;;49.60;21.67;;;;;;;0.98;100.00;98211.09;8467962;27;20042;-78
2021/12/29 09:16:24;;;;;;;57.30;24.67;;;;;;;0.98;100.00;98195.13;8481695;27;20039;-75
2021/12/29 09:20:27;;;;;;;49.45;22.48;;;;;;;1.03;100.00;98197.78;8479960;27;20096;-75
2021/12/29 09:24:28;;;;;;;45.90;21.50;;;;;;;1.06;100.00;98202.56;8491145;27;20486;-75
2021/12/29 09:28:29;;;;;;;38.47;18.63;;;;;;;1.08;100.00;98199.63;8470361;27;20052;-75
2021/12/29 09:32:31;;;;;;;38.55;18.73;;;;;;;1.14;100.00;98204.69;8480626;27;20068;-74
2021/12/29 09:36:32;;;;;;;39.63;19.98;;;;;;;1.20;100.00;98208.94;8427196;27;20056;-75
2021/12/29 09:40:34;;;;;;;63.38;32.22;;;;;;;1.31;100.00;98198.25;8491943;27;20051;-75
2021/12/29 09:44:36;;;;;;;66.90;36.65;;;;;;;1.39;100.00;98203.00;8423465;28;20067;-75
2021/12/29 09:48:38;;;;;;;60.70;35.90;;;;;;;1.34;100.00;98203.03;8369249;28;20045;-75
2021/12/29 09:52:39;;;;;;;53.30;27.67;;;;;;;1.36;100.00;98200.91;8409136;28;20072;-75
2021/12/29 09:56:40;;;;;;;48.28;23.17;;;;;;;1.41;100.00;98204.34;8415545;28;20502;-75
2021/12/29 10:00:45;;;;;;;46.92;22.00;;;;;;;1.40;100.00;98212.59;8414895;28;20048;-75
2021/12/29 10:04:46;;;;;;;48.80;23.50;;;;;;;1.32;100.00;98215.81;8421546;28;20055;-75
2021/12/29 10:08:48;;;;;;;52.33;23.67;;;;;;;1.30;100.00;98212.63;8421025;28;20048;-77
2021/12/29 10:12:49;;;;;;;53.45;24.60;;;;;;;1.39;100.00;98211.00;8420886;28;20486;-75
2021/12/29 10:16:50;;;;;;;54.50;27.10;;;;;;;1.47;100.00;98213.09;8485889;27;20062;-75
2021/12/29 10:21:04;;;;;;;53.40;26.08;;;;;;;1.64;100.00;98213.56;8491092;27;20043;-74
2021/12/29 10:25:08;;;;;;;63.28;27.42;;;;;;;1.59;100.00;98200.28;8487994;27;20122;-75
2021/12/29 10:29:12;;;;;;;130.60;51.58;;;;;;;1.51;100.00;98198.19;8487538;27;20051;-76
2021/12/29 10:33:13;;;;;;;127.90;51.22;;;;;;;1.48;100.00;98204.06;8494805;27;20054;-76
2021/12/29 10:37:17;;;;;;;128.55;41.55;;;;;;;1.39;100.00;98216.31;8495984;27;20142;-76
2021/12/29 10:41:17;;;;;;;70.57;29.73;;;;;;;1.49;100.00;98226.91;8495274;27;20058;-76
2021/12/29 10:45:27;;;;;;;74.80;34.03;;;;;;;1.62;100.00;98226.34;8495644;28;20436;-76
2021/12/29 10:49:29;;;;;;;69.38;29.70;;;;;;;1.70;100.00;98233.75;8478910;28;20047;-76
2021/12/29 10:53:35;;;;;;;55.20;26.15;;;;;;;1.70;100.00;98239.09;8495662;28;20068;-76
2021/12/29 10:57:36;;;;;;;72.65;29.00;;;;;;;1.67;100.00;98236.97;8463351;28;21510;-76
2021/12/29 11:01:37;;;;;;;83.30;33.53;;;;;;;1.71;100.00;98248.66;8487583;28;20047;-76
2021/12/29 11:05:47;;;;;;;73.70;31.48;;;;;;;1.77;100.00;98244.94;8481703;28;20445;-76
2021/12/29 11:09:47;;;;;;;67.88;29.27;;;;;;;1.90;100.00;98255.00;8487435;28;20058;-76
2021/12/29 11:13:48;;;;;;;73.70;31.80;;;;;;;2.01;100.00;98255.75;8486226;28;20043;-76
2021/12/29 11:17:51;;;;;;;78.22;33.45;;;;;;;2.08;100.00;98257.03;8494490;28;20389;-76
2021/12/29 11:21:51;;;;;;;86.07;34.40;;;;;;;2.05;100.00;98252.25;8456288;28;20063;-75
2021/12/29 11:25:52;;;;;;;117.65;39.75;;;;;;;1.98;100.00;98256.28;8468248;28;20114;-76
2021/12/29 11:29:57;;;;;;;100.45;36.15;;;;;;;1.95;100.00;98254.97;8487281;28;20080;-76
2021/12/29 11:34:28;;;;;;;74.85;31.63;;;;;;;2.06;100.00;98259.16;8480185;28;20047;-76
2021/12/29 11:38:29;;;;;;;60.72;29.85;;;;;;;2.23;100.00;98274.00;8474895;28;20170;-76
2021/12/29 11:42:31;;;;;;;57.97;26.85;;;;;;;2.36;100.00;98268.06;8446928;28;20046;-76
2021/12/29 11:46:32;;;;;;;56.03;24.65;;;;;;;2.43;100.00;98268.59;8489981;27;20044;-76
2021/12/29 11:50:35;;;;;;;67.90;31.58;;;;;;;2.43;100.00;98284.56;8497129;27;20047;-76
2021/12/29 11:54:48;;;;;;;71.43;31.42;;;;;;;2.39;100.00;98288.84;8476314;27;20043;-76
2021/12/29 11:58:51;;;;;;;84.45;39.72;;;;;;;2.34;100.00;98291.53;8496822;27;20058;-73
2021/12/29 12:03:05;;;;;;;85.20;37.53;;;;;;;2.32;100.00;98289.16;8495874;27;20475;-73
2021/12/29 12:07:10;;;;;;;102.75;41.92;;;;;;;2.38;100.00;98292.59;8428723;27;20035;-73
2021/12/29 12:11:27;;;;;;;91.10;40.22;;;;;;;2.39;100.00;98304.81;8476857;27;20096;-73
2021/12/29 12:15:36;;;;;;;98.22;38.50;;;;;;;2.47;100.00;98296.25;8462704;27;20043;-73
2021/12/29 12:19:36;;;;;;;;;;;;;;;2.53;100.00;98305.81;8474230;27;20055;-73
2021/12/29 12:23:40;;;;;;;59.03;23.42;;;;;;;2.55;100.00;98309.00;8464872;27;20473;-73
2021/12/29 12:27:43;;;;;;;47.90;21.85;;;;;;;2.60;100.00;98316.97;8475133;27;20035;-73
2021/12/29 12:32:09;;;;;;;45.70;22.40;;;;;;;2.62;100.00;98301.50;8480981;27;20047;-73
2021/12/29 12:36:10;;;;;;;50.28;23.20;;;;;;;2.67;100.00;98304.13;8467321;27;20055;-77
2021/12/29 12:40:26;;;;;;;54.47;24.65;;;;;;;2.70;100.00;98306.22;8489233;27;20040;-74
2021/12/29 12:44:36;;;;;;;83.85;33.65;;;;;;;2.74;100.00;98306.50;8461372;27;20066;-74
2021/12/29 12:48:37;;;;;;;58.75;26.92;;;;;;;2.83;100.00;98305.63;8483620;27;20508;-74
2021/12/29 12:52:42;;;;;;;57.22;26.00;;;;;;;2.84;100.00;98309.88;8484030;27;20060;-73
2021/12/29 12:56:48;;;;;;;60.55;25.42;;;;;;;2.85;100.00;98314.16;8467627;27;20050;-73
2021/12/29 13:00:49;;;;;;;59.95;28.08;;;;;;;2.86;100.00;98321.06;8492917;27;20035;-73
2021/12/29 13:05:11;;;;;;;64.70;30.30;;;;;;;2.86;100.00;98321.06;8484411;27;20046;-72
2021/12/29 13:09:12;;;;;;;72.05;31.08;;;;;;;2.83;100.00;98318.94;8484869;27;20050;-73
2021/12/29 13:13:20;;;;;;;72.68;31.65;;;;;;;2.82;100.00;98325.34;8494184;27;20064;-73
2021/12/29 13:17:21;;;;;;;82.03;33.60;;;;;;;2.79;100.00;98328.59;8487593;27;20131;-72
2021/12/29 13:21:37;;;;;;;75.78;35.05;;;;;;;2.76;100.00;98331.78;8494770;27;20054;-75
2021/12/29 13:25:40;;;;;;;254.55;67.88;;;;;;;2.77;100.00;98344.06;8416705;28;20048;-70
2021/12/29 13:29:41;;;;;;;455.75;117.80;;;;;;;2.78;100.00;98351.00;8418079;28;20080;-71
2021/12/29 13:33:45;;;;;;;427.67;117.03;;;;;;;2.75;100.00;98351.53;8410716;28;20037;-73
2021/12/29 13:37:46;;;;;;;448.42;132.07;;;;;;;2.70;100.00;98362.22;8418126;28;20526;-73
2021/12/29 13:41:47;;;;;;;231.48;81.10;;;;;;;2.67;100.00;98360.13;8420010;28;20040;-72
2021/12/29 13:45:54;;;;;;;173.15;64.93;;;;;;;2.67;100.00;98365.44;8408752;28;20450;-71
2021/12/29 13:49:56;;;;;;;106.40;43.25;;;;;;;2.70;100.00;98375.53;8422421;28;20049;-71
2021/12/29 13:54:00;;;;;;;107.10;44.97;;;;;;;2.77;100.00;98381.38;8413456;27;20145;-72
2021/12/29 13:58:01;;;;;;;69.68;30.60;;;;;;;2.82;100.00;98384.03;8476146;27;20039;-71
2021/12/29 14:02:05;;;;;;;61.45;27.27;;;;;;;2.91;100.00;98371.69;8492452;27;20043;-71
2021/12/29 14:06:08;;;;;;;67.43;29.50;;;;;;;2.95;100.00;98386.09;8381873;28;20063;-71
2021/12/29 14:10:11;;;;;;;61.05;27.35;;;;;;;2.99;100.00;98389.00;8378454;28;20487;-71
2021/12/29 14:14:13;;;;;;;64.07;27.42;;;;;;;3.02;100.00;98398.28;8357390;28;20179;-71
2021/12/29 14:18:22;;;;;;;63.47;25.73;;;;;;;3.12;100.00;98403.59;8363038;28;20543;-71
2021/12/29 14:22:25;;;;;;;58.78;26.45;;;;;;;3.15;100.00;98405.69;8348705;28;20101;-71
2021/12/29 14:26:28;;;;;;;65.78;28.23;;;;;;;3.13;100.00;98413.97;8358453;28;20397;-71
2021/12/29 14:30:29;;;;;;;69.32;29.77;;;;;;;3.06;100.00;98410.81;8383339;28;20052;-71
2021/12/29 14:34:42;;;;;;;76.10;32.88;;;;;;;3.01;100.00;98410.06;8354128;28;20085;-71
2021/12/29 14:38:43;;;;;;;74.95;32.30;;;;;;;3.00;100.00;98411.13;8471075;27;20048;-71
2021/12/29 14:42:45;;;;;;;71.40;32.65;;;;;;;2.95;100.00;98428.75;8489797;27;20101;-71
2021/12/29 14:46:54;;;;;;;111.88;44.80;;;;;;;2.91;100.00;98441.03;8491824;28;20047;-71
2021/12/29 14:50:55;;;;;;;129.35;53.25;;;;;;;2.84;100.00;98435.22;8480352;28;20047;-71
2021/12/29 14:54:58;;;;;;;123.93;56.40;;;;;;;2.79;100.00;98437.91;8455894;28;20410;-71
2021/12/29 14:59:13;;;;;;;135.48;54.90;;;;;;;2.69;100.00;98437.97;8478450;28;20050;-71
2021/12/29 15:03:15;;;;;;;172.07;61.13;;;;;;;2.58;100.00;98441.75;8448892;28;20070;-72
2021/12/29 15:07:21;;;;;;;177.15;60.80;;;;;;;2.47;100.00;98456.16;8493541;28;20043;-71
2021/12/29 15:11:22;;;;;;;157.88;60.75;;;;;;;2.40;100.00;98455.66;8491088;28;20440;-72
2021/12/29 15:15:27;;;;;;;151.45;59.63;;;;;;;2.29;100.00;98459.41;8487649;28;20662;-71
2021/12/29 15:19:27;;;;;;;166.02;61.30;;;;;;;2.19;100.00;98480.75;8431710;27;20422;-72
2021/12/29 15:23:34;;;;;;;149.07;53.65;;;;;;;2.23;100.00;98487.13;8493621;27;20092;-71
2021/12/29 15:27:35;;;;;;;106.03;42.78;;;;;;;2.30;100.00;98492.97;8496604;27;20122;-71
2021/12/29 15:31:38;;;;;;;106.57;44.50;;;;;;;2.29;100.00;98502.03;8490848;27;20423;-71
2021/12/29 15:35:40;;;;;;;110.60;44.80;;;;;;;2.29;100.00;98512.69;8488490;27;20104;-71
2021/12/29 15:39:41;;;;;;;134.85;50.13;;;;;;;2.29;100.00;98513.50;8495273;27;20070;-71
2021/12/29 15:43:42;;;;;;;136.40;54.42;;;;;;;2.27;100.00;98509.50;8495098;27;20039;-71
2021/12/29 15:47:44;;;;;;;170.73;64.13;;;;;;;2.27;100.00;98509.50;8492842;27;20110;-71
2021/12/29 15:51:45;;;;;;;182.23;67.28;;;;;;;2.26;100.00;98519.38;8492926;27;20066;-71
2021/12/29 15:55:46;;;;;;;182.15;66.00;;;;;;;2.27;100.00;98520.97;8495487;27;20047;-71
2021/12/29 15:59:47;;;;;;;217.00;67.40;;;;;;;2.22;100.00;98523.63;8487432;27;20036;-71
2021/12/29 16:03:49;;;;;;;213.05;70.03;;;;;;;2.23;100.00;98529.75;8490836;27;20047;-72
2021/12/29 16:07:50;;;;;;;211.20;67.68;;;;;;;2.27;100.00;98536.16;8485115;27;20079;-72
2021/12/29 16:11:52;;;;;;;172.73;59.88;;;;;;;2.30;100.00;98546.25;8482463;27;20042;-72
2021/12/29 16:15:53;;;;;;;138.80;51.33;;;;;;;2.37;100.00;98549.47;8490195;27;20039;-71
2021/12/29 16:20:16;;;;;;;123.20;47.17;;;;;;;2.43;100.00;98545.72;8411689;28;20056;-71
2021/12/29 16:24:18;;;;;;;120.60;46.40;;;;;;;2.45;100.00;98543.56;8418751;28;20047;-71
2021/12/29 16:28:20;;;;;;;135.57;51.05;;;;;;;2.45;100.00;98543.56;8444745;28;20126;-72
2021/12/29 16:32:23;;;;;;;121.20;50.22;;;;;;;2.45;100.00;98548.91;8380223;28;20040;-72
2021/12/29 16:36:24;;;;;;;116.97;48.22;;;;;;;2.47;100.00;98557.44;8432156;28;20056;-72
2021/12/29 16:40:25;;;;;;;120.32;48.42;;;;;;;2.49;100.00;98556.09;8395875;28;20052;-72
2021/12/29 16:44:26;;;;;;;121.65;47.38;;;;;;;2.51;100.00;98559.28;8416065;28;20044;-72
2021/12/29 16:48:27;;;;;;;128.63;48.65;;;;;;;2.48;100.00;98565.19;8408695;28;20051;-72
2021/12/29 16:52:28;;;;;;;113.25;46.88;;;;;;;2.48;100.00;98564.38;8464198;27;20043;-72
2021/12/29 16:56:30;;;;;;;113.32;46.10;;;;;;;2.50;100.00;98572.88;8482398;27;20070;-71
2021/12/29 17:00:31;;;;;;;133.10;49.15;;;;;;;2.51;100.00;98577.16;8493765;27;20130;-72
2021/12/29 17:04:32;;;;;;;118.40;47.83;;;;;;;2.50;100.00;98579.00;8435982;27;20402;-72
2021/12/29 17:08:33;;;;;;;135.25;53.90;;;;;;;2.49;100.00;98571.28;8472925;27;20046;-71
2021/12/29 17:12:34;;;;;;;146.05;60.15;;;;;;;2.45;100.00;98578.22;8496965;27;20421;-72
2021/12/29 17:16:41;;;;;;;177.35;71.38;;;;;;;2.46;100.00;98582.50;8490837;27;20043;-71
2021/12/29 17:20:42;;;;;;;214.98;89.45;;;;;;;2.46;100.00;98582.50;8427336;27;20125;-72
2021/12/29 17:24:43;;;;;;;216.45;80.57;;;;;;;2.35;100.00;98591.56;8482067;27;20051;-71
2021/12/29 17:28:44;;;;;;;225.48;87.35;;;;;;;2.34;100.00;98589.94;8493307;27;20054;-72
2021/12/29 17:32:46;;;;;;;240.85;91.45;;;;;;;2.28;100.00;98597.16;8486791;27;20129;-70
2021/12/29 17:37:07;;;;;;;226.48;83.80;;;;;;;2.30;100.00;98594.22;8416697;28;20507;-71
2021/12/29 17:41:09;;;;;;;233.35;93.68;;;;;;;2.30;100.00;98594.22;8418116;28;20053;-71
2021/12/29 17:45:12;;;;;;;204.60;73.72;;;;;;;2.26;100.00;98590.50;8417712;28;20044;-71
2021/12/29 17:49:14;;;;;;;171.02;59.88;;;;;;;2.22;100.00;98602.78;8419030;28;20044;-71
2021/12/29 17:53:18;;;;;;;186.75;70.95;;;;;;;2.26;100.00;98598.50;8399517;27;20047;-74
2021/12/29 17:57:21;;;;;;;178.23;69.95;;;;;;;2.32;100.00;98602.75;8484631;27;20487;-74
2021/12/29 18:01:22;;;;;;;172.70;68.35;;;;;;;2.37;100.00;98605.44;8459670;27;20047;-74
2021/12/29 18:05:23;;;;;;;183.30;77.78;;;;;;;2.39;100.00;98608.59;8494114;27;20099;-76
2021/12/29 18:09:24;;;;;;;201.25;84.18;;;;;;;2.43;100.00;98604.34;8490527;27;20478;-77
2021/12/29 18:13:28;;;;;;;188.20;79.53;;;;;;;2.44;100.00;98605.94;8490387;27;20100;-75
2021/12/29 18:17:30;;;;;;;156.18;67.90;;;;;;;2.45;100.00;98618.19;8443852;27;20055;-76
2021/12/29 18:21:32;;;;;;;150.23;64.60;;;;;;;2.48;100.00;98620.34;8491379;27;20051;-75
2021/12/29 18:25:35;;;;;;;148.95;59.13;;;;;;;2.49;100.00;98603.25;8488913;27;20070;-74
2021/12/29 18:29:37;;;;;;;155.10;56.55;;;;;;;2.48;100.00;98599.03;8417111;28;20753;-75
2021/12/29 18:33:38;;;;;;;163.90;59.88;;;;;;;2.47;100.00;98605.41;8414877;28;20055;-75